sensor_id;sensor_type;location;lat;lon;timestamp;temperature;humidity
67752;DHT22;54551;51.068;5.826;2023-02-21T00:02:41;9.20;99.90
67752;DHT22;54551;51.068;5.826;2023-02-21T00:05:26;9.20;99.90
67752;DHT22;54551;51.068;5.826;2023-02-21T00:08:10;9.20;99.90
67752;DHT22;54551;51.068;5.826;2023-02-21T00:10:55;9.10;99.90
67752;DHT22;54551;51.068;5.826;2023-02-21T00:13:39;9.10;99.90
67752;DHT22;54551;51.068;5.826;2023-02-21T00:16:23;9.10;99.90
67752;DHT22;54551;51.068;5.826;2023-02-21T00:19:08;9.10;99.90
67752;DHT22;54551;51.068;5.826;2023-02-21T00:21:52;9.10;99.90
67752;DHT22;54551;51.068;5.826;2023-02-21T00:24:37;9.10;99.90
67752;DHT22;54551;51.068;5.826;2023-02-21T00:27:23;9.10;99.90
67752;DHT22;54551;51.068;5.826;2023-02-21T00:30:08;9.10;99.90
67752;DHT22;54551;51.068;5.826;2023-02-21T00:32:53;9.10;99.90
67752;DHT22;54551;51.068;5.826;2023-02-21T00:35:37;9.10;99.90
67752;DHT22;54551;51.068;5.826;2023-02-21T00:38:22;9.10;99.90
67752;DHT22;54551;51.068;5.826;2023-02-21T00:41:06;9.10;99.90
67752;DHT22;54551;51.068;5.826;2023-02-21T00:43:51;9.10;99.90
67752;DHT22;54551;51.068;5.826;2023-02-21T00:46:35;9.10;99.90
67752;DHT22;54551;51.068;5.826;2023-02-21T00:49:19;9.10;99.90
67752;DHT22;54551;51.068;5.826;2023-02-21T00:52:03;9.10;99.90
67752;DHT22;54551;51.068;5.826;2023-02-21T00:54:48;9.10;99.90
67752;DHT22;54551;51.068;5.826;2023-02-21T00:57:32;9.10;99.90
67752;DHT22;54551;51.068;5.826;2023-02-21T01:00:19;9.10;99.90
67752;DHT22;54551;51.068;5.826;2023-02-21T01:03:04;9.10;99.90
67752;DHT22;54551;51.068;5.826;2023-02-21T01:05:51;9.10;99.90
67752;DHT22;54551;51.068;5.826;2023-02-21T01:08:39;9.10;99.90
67752;DHT22;54551;51.068;5.826;2023-02-21T01:11:24;9.10;99.90
67752;DHT22;54551;51.068;5.826;2023-02-21T01:14:08;9.10;99.90
67752;DHT22;54551;51.068;5.826;2023-02-21T01:16:53;9.10;99.90
67752;DHT22;54551;51.068;5.826;2023-02-21T01:19:38;9.10;99.90
67752;DHT22;54551;51.068;5.826;2023-02-21T01:22:22;9.10;99.90
67752;DHT22;54551;51.068;5.826;2023-02-21T01:25:07;9.10;99.90
67752;DHT22;54551;51.068;5.826;2023-02-21T01:27:53;9.00;99.90
67752;DHT22;54551;51.068;5.826;2023-02-21T01:30:38;9.00;99.90
67752;DHT22;54551;51.068;5.826;2023-02-21T01:33:22;9.10;99.90
67752;DHT22;54551;51.068;5.826;2023-02-21T01:36:07;9.10;99.90
67752;DHT22;54551;51.068;5.826;2023-02-21T01:38:54;9.10;99.90
67752;DHT22;54551;51.068;5.826;2023-02-21T01:41:39;9.10;99.90
67752;DHT22;54551;51.068;5.826;2023-02-21T01:44:31;9.10;99.90
67752;DHT22;54551;51.068;5.826;2023-02-21T01:47:16;9.10;99.90
67752;DHT22;54551;51.068;5.826;2023-02-21T01:50:06;9.10;99.90
67752;DHT22;54551;51.068;5.826;2023-02-21T01:52:52;9.10;99.90
67752;DHT22;54551;51.068;5.826;2023-02-21T01:55:39;9.10;99.90
67752;DHT22;54551;51.068;5.826;2023-02-21T01:58:26;9.10;99.90
67752;DHT22;54551;51.068;5.826;2023-02-21T02:01:22;9.10;99.90
67752;DHT22;54551;51.068;5.826;2023-02-21T02:04:08;9.10;99.90
67752;DHT22;54551;51.068;5.826;2023-02-21T02:06:53;9.10;99.90
67752;DHT22;54551;51.068;5.826;2023-02-21T02:09:37;9.10;99.90
67752;DHT22;54551;51.068;5.826;2023-02-21T02:12:48;9.10;99.90
67752;DHT22;54551;51.068;5.826;2023-02-21T02:15:34;9.10;99.90
67752;DHT22;54551;51.068;5.826;2023-02-21T02:18:33;9.00;99.90
67752;DHT22;54551;51.068;5.826;2023-02-21T02:35:31;8.90;99.90
67752;DHT22;54551;51.068;5.826;2023-02-21T02:38:02;8.90;99.90
67752;DHT22;54551;51.068;5.826;2023-02-21T02:40:48;8.90;99.90
67752;DHT22;54551;51.068;5.826;2023-02-21T02:43:34;8.90;99.90
67752;DHT22;54551;51.068;5.826;2023-02-21T02:46:16;8.90;99.90
67752;DHT22;54551;51.068;5.826;2023-02-21T02:48:54;8.90;99.90
67752;DHT22;54551;51.068;5.826;2023-02-21T02:51:22;8.90;99.90
67752;DHT22;54551;51.068;5.826;2023-02-21T02:53:50;8.90;99.90
67752;DHT22;54551;51.068;5.826;2023-02-21T02:56:16;8.80;99.90
67752;DHT22;54551;51.068;5.826;2023-02-21T02:58:46;8.80;99.90
67752;DHT22;54551;51.068;5.826;2023-02-21T03:01:25;8.80;99.90
67752;DHT22;54551;51.068;5.826;2023-02-21T03:09:55;8.80;99.90
67752;DHT22;54551;51.068;5.826;2023-02-21T03:15:14;8.70;99.90
67752;DHT22;54551;51.068;5.826;2023-02-21T03:17:50;8.70;99.90
67752;DHT22;54551;51.068;5.826;2023-02-21T03:20:17;8.70;99.90
67752;DHT22;54551;51.068;5.826;2023-02-21T03:22:45;8.70;99.90
67752;DHT22;54551;51.068;5.826;2023-02-21T03:25:13;8.80;99.90
67752;DHT22;54551;51.068;5.826;2023-02-21T03:27:41;8.80;99.90
67752;DHT22;54551;51.068;5.826;2023-02-21T03:30:29;8.80;99.90
67752;DHT22;54551;51.068;5.826;2023-02-21T03:32:57;8.80;99.90
67752;DHT22;54551;51.068;5.826;2023-02-21T03:35:27;8.80;99.90
67752;DHT22;54551;51.068;5.826;2023-02-21T03:37:56;8.80;99.90
67752;DHT22;54551;51.068;5.826;2023-02-21T03:40:30;8.80;99.90
67752;DHT22;54551;51.068;5.826;2023-02-21T03:42:59;8.80;99.90
67752;DHT22;54551;51.068;5.826;2023-02-21T03:45:29;8.80;99.90
67752;DHT22;54551;51.068;5.826;2023-02-21T03:48:08;8.80;99.90
67752;DHT22;54551;51.068;5.826;2023-02-21T03:50:35;8.80;99.90
67752;DHT22;54551;51.068;5.826;2023-02-21T03:53:01;8.80;99.90
67752;DHT22;54551;51.068;5.826;2023-02-21T03:55:29;8.80;99.90
67752;DHT22;54551;51.068;5.826;2023-02-21T03:57:56;8.80;99.90
67752;DHT22;54551;51.068;5.826;2023-02-21T04:00:23;8.80;99.90
67752;DHT22;54551;51.068;5.826;2023-02-21T04:02:52;8.80;99.90
67752;DHT22;54551;51.068;5.826;2023-02-21T04:05:33;8.80;99.90
67752;DHT22;54551;51.068;5.826;2023-02-21T04:08:00;8.80;99.90
67752;DHT22;54551;51.068;5.826;2023-02-21T04:10:26;8.80;99.90
67752;DHT22;54551;51.068;5.826;2023-02-21T04:12:53;8.70;99.90
67752;DHT22;54551;51.068;5.826;2023-02-21T04:15:19;8.70;99.90
67752;DHT22;54551;51.068;5.826;2023-02-21T04:17:45;8.70;99.90
67752;DHT22;54551;51.068;5.826;2023-02-21T04:20:13;8.70;99.90
67752;DHT22;54551;51.068;5.826;2023-02-21T04:22:44;8.70;99.90
67752;DHT22;54551;51.068;5.826;2023-02-21T04:25:10;8.70;99.90
67752;DHT22;54551;51.068;5.826;2023-02-21T04:27:42;8.70;99.90
67752;DHT22;54551;51.068;5.826;2023-02-21T04:30:09;8.70;99.90
67752;DHT22;54551;51.068;5.826;2023-02-21T04:32:35;8.80;99.90
67752;DHT22;54551;51.068;5.826;2023-02-21T04:35:06;8.70;99.90
67752;DHT22;54551;51.068;5.826;2023-02-21T04:37:33;8.80;99.90
67752;DHT22;54551;51.068;5.826;2023-02-21T04:39:59;8.70;99.90
67752;DHT22;54551;51.068;5.826;2023-02-21T04:42:25;8.70;99.90
67752;DHT22;54551;51.068;5.826;2023-02-21T04:44:51;8.70;99.90
67752;DHT22;54551;51.068;5.826;2023-02-21T04:47:17;8.70;99.90
67752;DHT22;54551;51.068;5.826;2023-02-21T04:49:43;8.70;99.90
67752;DHT22;54551;51.068;5.826;2023-02-21T04:52:09;8.70;99.90
67752;DHT22;54551;51.068;5.826;2023-02-21T04:54:34;8.70;99.90
67752;DHT22;54551;51.068;5.826;2023-02-21T04:57:00;8.70;99.90
67752;DHT22;54551;51.068;5.826;2023-02-21T04:59:26;8.70;99.90
67752;DHT22;54551;51.068;5.826;2023-02-21T05:01:52;8.70;99.90
67752;DHT22;54551;51.068;5.826;2023-02-21T05:04:18;8.70;99.90
67752;DHT22;54551;51.068;5.826;2023-02-21T05:06:44;8.70;99.90
67752;DHT22;54551;51.068;5.826;2023-02-21T05:09:10;8.70;99.90
67752;DHT22;54551;51.068;5.826;2023-02-21T05:11:36;8.70;99.90
67752;DHT22;54551;51.068;5.826;2023-02-21T05:14:02;8.70;99.90
67752;DHT22;54551;51.068;5.826;2023-02-21T05:16:28;8.70;99.90
67752;DHT22;54551;51.068;5.826;2023-02-21T05:18:54;8.70;99.90
67752;DHT22;54551;51.068;5.826;2023-02-21T05:21:20;8.60;99.90
67752;DHT22;54551;51.068;5.826;2023-02-21T05:23:46;8.60;99.90
67752;DHT22;54551;51.068;5.826;2023-02-21T05:26:22;8.60;99.90
67752;DHT22;54551;51.068;5.826;2023-02-21T05:28:49;8.60;99.90
67752;DHT22;54551;51.068;5.826;2023-02-21T05:31:16;8.50;99.90
67752;DHT22;54551;51.068;5.826;2023-02-21T05:33:41;8.60;99.90
67752;DHT22;54551;51.068;5.826;2023-02-21T05:36:07;8.60;99.90
67752;DHT22;54551;51.068;5.826;2023-02-21T05:38:43;8.60;99.90
67752;DHT22;54551;51.068;5.826;2023-02-21T05:41:10;8.60;99.90
67752;DHT22;54551;51.068;5.826;2023-02-21T05:43:36;8.60;99.90
67752;DHT22;54551;51.068;5.826;2023-02-21T05:46:02;8.60;99.90
67752;DHT22;54551;51.068;5.826;2023-02-21T05:48:28;8.60;99.90
67752;DHT22;54551;51.068;5.826;2023-02-21T05:50:54;8.60;99.90
67752;DHT22;54551;51.068;5.826;2023-02-21T05:53:20;8.60;99.90
67752;DHT22;54551;51.068;5.826;2023-02-21T05:55:46;8.60;99.90
67752;DHT22;54551;51.068;5.826;2023-02-21T05:58:12;8.70;99.90
67752;DHT22;54551;51.068;5.826;2023-02-21T06:00:37;8.70;99.90
67752;DHT22;54551;51.068;5.826;2023-02-21T06:03:03;8.60;99.90
67752;DHT22;54551;51.068;5.826;2023-02-21T06:05:29;8.70;99.90
67752;DHT22;54551;51.068;5.826;2023-02-21T06:07:55;8.70;99.90
67752;DHT22;54551;51.068;5.826;2023-02-21T06:10:21;8.60;99.90
67752;DHT22;54551;51.068;5.826;2023-02-21T06:12:47;8.60;99.90
67752;DHT22;54551;51.068;5.826;2023-02-21T06:15:13;8.70;99.90
67752;DHT22;54551;51.068;5.826;2023-02-21T06:17:39;8.60;99.90
67752;DHT22;54551;51.068;5.826;2023-02-21T06:20:06;8.60;99.90
67752;DHT22;54551;51.068;5.826;2023-02-21T06:22:32;8.60;99.90
67752;DHT22;54551;51.068;5.826;2023-02-21T06:24:58;8.70;99.90
67752;DHT22;54551;51.068;5.826;2023-02-21T06:27:24;8.70;99.90
67752;DHT22;54551;51.068;5.826;2023-02-21T06:29:50;8.70;99.90
67752;DHT22;54551;51.068;5.826;2023-02-21T06:32:16;8.70;99.90
67752;DHT22;54551;51.068;5.826;2023-02-21T06:34:42;8.70;99.90
67752;DHT22;54551;51.068;5.826;2023-02-21T06:37:08;8.70;99.90
67752;DHT22;54551;51.068;5.826;2023-02-21T06:39:34;8.60;99.90
67752;DHT22;54551;51.068;5.826;2023-02-21T06:42:00;8.70;99.90
67752;DHT22;54551;51.068;5.826;2023-02-21T06:44:26;8.70;99.90
67752;DHT22;54551;51.068;5.826;2023-02-21T06:46:52;8.70;99.90
67752;DHT22;54551;51.068;5.826;2023-02-21T06:49:21;8.70;99.90
67752;DHT22;54551;51.068;5.826;2023-02-21T06:51:47;8.70;99.90
67752;DHT22;54551;51.068;5.826;2023-02-21T06:54:13;8.70;99.90
67752;DHT22;54551;51.068;5.826;2023-02-21T06:56:41;8.70;99.90
67752;DHT22;54551;51.068;5.826;2023-02-21T06:59:09;8.70;99.90
67752;DHT22;54551;51.068;5.826;2023-02-21T07:01:35;8.70;99.90
67752;DHT22;54551;51.068;5.826;2023-02-21T07:04:01;8.80;99.90
67752;DHT22;54551;51.068;5.826;2023-02-21T07:06:27;8.70;99.90
67752;DHT22;54551;51.068;5.826;2023-02-21T07:08:53;8.80;99.90
67752;DHT22;54551;51.068;5.826;2023-02-21T07:11:19;8.80;99.90
67752;DHT22;54551;51.068;5.826;2023-02-21T07:13:52;8.80;99.90
67752;DHT22;54551;51.068;5.826;2023-02-21T07:16:19;8.80;99.90
67752;DHT22;54551;51.068;5.826;2023-02-21T07:18:45;8.80;99.90
67752;DHT22;54551;51.068;5.826;2023-02-21T07:21:13;8.80;99.90
67752;DHT22;54551;51.068;5.826;2023-02-21T07:23:39;8.80;99.90
67752;DHT22;54551;51.068;5.826;2023-02-21T07:26:05;8.80;99.90
67752;DHT22;54551;51.068;5.826;2023-02-21T07:28:31;8.80;99.90
67752;DHT22;54551;51.068;5.826;2023-02-21T07:30:56;8.80;99.90
67752;DHT22;54551;51.068;5.826;2023-02-21T07:33:22;8.80;99.90
67752;DHT22;54551;51.068;5.826;2023-02-21T07:35:48;8.90;99.90
67752;DHT22;54551;51.068;5.826;2023-02-21T07:38:22;8.90;99.90
67752;DHT22;54551;51.068;5.826;2023-02-21T07:40:48;8.90;99.90
67752;DHT22;54551;51.068;5.826;2023-02-21T07:43:15;8.90;99.90
67752;DHT22;54551;51.068;5.826;2023-02-21T07:45:42;8.90;99.90
67752;DHT22;54551;51.068;5.826;2023-02-21T07:48:08;8.90;99.90
67752;DHT22;54551;51.068;5.826;2023-02-21T07:50:34;8.90;99.90
67752;DHT22;54551;51.068;5.826;2023-02-21T07:53:00;8.90;99.90
67752;DHT22;54551;51.068;5.826;2023-02-21T07:55:26;8.90;99.90
67752;DHT22;54551;51.068;5.826;2023-02-21T07:57:52;8.90;99.90
67752;DHT22;54551;51.068;5.826;2023-02-21T08:00:18;8.90;99.90
67752;DHT22;54551;51.068;5.826;2023-02-21T08:02:47;9.00;99.90
67752;DHT22;54551;51.068;5.826;2023-02-21T08:05:14;9.00;99.90
67752;DHT22;54551;51.068;5.826;2023-02-21T08:07:41;9.00;99.90
67752;DHT22;54551;51.068;5.826;2023-02-21T08:10:07;8.90;99.90
67752;DHT22;54551;51.068;5.826;2023-02-21T08:12:33;8.90;99.90
67752;DHT22;54551;51.068;5.826;2023-02-21T08:14:58;9.00;99.90
67752;DHT22;54551;51.068;5.826;2023-02-21T08:17:25;9.00;99.90
67752;DHT22;54551;51.068;5.826;2023-02-21T08:19:51;9.00;99.90
67752;DHT22;54551;51.068;5.826;2023-02-21T08:22:17;8.90;99.90
67752;DHT22;54551;51.068;5.826;2023-02-21T08:24:44;9.00;99.90
67752;DHT22;54551;51.068;5.826;2023-02-21T08:27:11;9.00;99.90
67752;DHT22;54551;51.068;5.826;2023-02-21T08:29:36;9.00;99.90
67752;DHT22;54551;51.068;5.826;2023-02-21T08:32:05;9.10;99.90
67752;DHT22;54551;51.068;5.826;2023-02-21T08:34:31;9.10;99.90
67752;DHT22;54551;51.068;5.826;2023-02-21T08:36:56;9.10;99.90
67752;DHT22;54551;51.068;5.826;2023-02-21T08:39:22;9.10;99.90
67752;DHT22;54551;51.068;5.826;2023-02-21T08:41:49;9.10;99.90
67752;DHT22;54551;51.068;5.826;2023-02-21T08:44:17;9.20;99.90
67752;DHT22;54551;51.068;5.826;2023-02-21T08:46:46;9.20;99.90
67752;DHT22;54551;51.068;5.826;2023-02-21T08:49:12;9.30;99.90
67752;DHT22;54551;51.068;5.826;2023-02-21T08:51:38;9.30;99.90
67752;DHT22;54551;51.068;5.826;2023-02-21T08:54:06;9.30;99.90
67752;DHT22;54551;51.068;5.826;2023-02-21T08:56:32;9.40;99.90
67752;DHT22;54551;51.068;5.826;2023-02-21T08:58:59;9.40;99.90
67752;DHT22;54551;51.068;5.826;2023-02-21T09:01:31;9.40;99.90
67752;DHT22;54551;51.068;5.826;2023-02-21T09:03:57;9.50;99.90
67752;DHT22;54551;51.068;5.826;2023-02-21T09:06:23;9.50;99.90
67752;DHT22;54551;51.068;5.826;2023-02-21T09:08:49;9.60;99.90
67752;DHT22;54551;51.068;5.826;2023-02-21T09:11:15;9.60;99.90
67752;DHT22;54551;51.068;5.826;2023-02-21T09:13:42;9.60;99.90
67752;DHT22;54551;51.068;5.826;2023-02-21T09:16:08;9.70;99.90
67752;DHT22;54551;51.068;5.826;2023-02-21T09:18:34;9.70;99.90
67752;DHT22;54551;51.068;5.826;2023-02-21T09:21:00;9.60;99.90
67752;DHT22;54551;51.068;5.826;2023-02-21T09:23:28;9.60;99.90
67752;DHT22;54551;51.068;5.826;2023-02-21T09:25:55;9.50;99.90
67752;DHT22;54551;51.068;5.826;2023-02-21T09:28:21;9.40;99.90
67752;DHT22;54551;51.068;5.826;2023-02-21T09:30:48;9.30;99.90
67752;DHT22;54551;51.068;5.826;2023-02-21T09:33:14;9.30;99.90
67752;DHT22;54551;51.068;5.826;2023-02-21T09:35:40;9.30;99.90
67752;DHT22;54551;51.068;5.826;2023-02-21T09:38:07;9.30;99.90
67752;DHT22;54551;51.068;5.826;2023-02-21T09:40:47;9.30;99.90
67752;DHT22;54551;51.068;5.826;2023-02-21T09:43:47;9.40;99.90
67752;DHT22;54551;51.068;5.826;2023-02-21T09:46:23;9.50;99.90
67752;DHT22;54551;51.068;5.826;2023-02-21T09:48:52;9.50;99.90
67752;DHT22;54551;51.068;5.826;2023-02-21T09:51:18;9.50;99.90
67752;DHT22;54551;51.068;5.826;2023-02-21T09:53:48;9.50;99.90
67752;DHT22;54551;51.068;5.826;2023-02-21T09:56:20;9.50;99.90
67752;DHT22;54551;51.068;5.826;2023-02-21T09:58:47;9.50;99.90
67752;DHT22;54551;51.068;5.826;2023-02-21T10:04:20;9.50;99.90
67752;DHT22;54551;51.068;5.826;2023-02-21T10:06:58;9.60;99.90
67752;DHT22;54551;51.068;5.826;2023-02-21T10:09:58;9.60;99.90
67752;DHT22;54551;51.068;5.826;2023-02-21T10:12:35;9.80;99.90
67752;DHT22;54551;51.068;5.826;2023-02-21T10:17:56;10.00;99.90
67752;DHT22;54551;51.068;5.826;2023-02-21T10:20:44;10.10;99.90
67752;DHT22;54551;51.068;5.826;2023-02-21T10:23:17;10.30;99.90
67752;DHT22;54551;51.068;5.826;2023-02-21T10:25:45;10.30;99.90
67752;DHT22;54551;51.068;5.826;2023-02-21T10:28:23;10.30;99.90
67752;DHT22;54551;51.068;5.826;2023-02-21T10:30:56;10.20;99.90
67752;DHT22;54551;51.068;5.826;2023-02-21T10:33:22;10.20;99.90
67752;DHT22;54551;51.068;5.826;2023-02-21T10:35:48;10.30;99.90
67752;DHT22;54551;51.068;5.826;2023-02-21T10:38:19;10.40;99.90
67752;DHT22;54551;51.068;5.826;2023-02-21T10:40:54;10.30;99.90
67752;DHT22;54551;51.068;5.826;2023-02-21T10:43:41;10.20;99.90
67752;DHT22;54551;51.068;5.826;2023-02-21T10:46:27;10.20;99.90
67752;DHT22;54551;51.068;5.826;2023-02-21T10:49:03;10.20;99.90
67752;DHT22;54551;51.068;5.826;2023-02-21T10:51:37;10.20;99.90
67752;DHT22;54551;51.068;5.826;2023-02-21T10:54:24;10.20;99.90
67752;DHT22;54551;51.068;5.826;2023-02-21T10:56:51;10.00;99.90
67752;DHT22;54551;51.068;5.826;2023-02-21T10:59:22;10.00;99.90
67752;DHT22;54551;51.068;5.826;2023-02-21T11:01:50;10.20;99.90
67752;DHT22;54551;51.068;5.826;2023-02-21T11:06:51;10.30;99.90
67752;DHT22;54551;51.068;5.826;2023-02-21T11:09:41;10.40;99.90
67752;DHT22;54551;51.068;5.826;2023-02-21T11:12:24;10.50;99.90
67752;DHT22;54551;51.068;5.826;2023-02-21T11:17:26;10.60;99.90
67752;DHT22;54551;51.068;5.826;2023-02-21T11:27:37;10.70;99.90
67752;DHT22;54551;51.068;5.826;2023-02-21T11:30:18;10.70;99.90
67752;DHT22;54551;51.068;5.826;2023-02-21T11:32:54;10.80;99.90
67752;DHT22;54551;51.068;5.826;2023-02-21T11:35:24;10.90;99.90
67752;DHT22;54551;51.068;5.826;2023-02-21T11:38:01;10.90;99.90
67752;DHT22;54551;51.068;5.826;2023-02-21T11:40:31;10.90;99.90
67752;DHT22;54551;51.068;5.826;2023-02-21T11:43:27;11.00;99.90
67752;DHT22;54551;51.068;5.826;2023-02-21T11:48:21;11.00;99.90
67752;DHT22;54551;51.068;5.826;2023-02-21T11:50:56;11.00;99.90
67752;DHT22;54551;51.068;5.826;2023-02-21T11:53:31;11.00;99.90
67752;DHT22;54551;51.068;5.826;2023-02-21T12:13:31;11.10;99.90
67752;DHT22;54551;51.068;5.826;2023-02-21T12:16:16;11.10;99.90
67752;DHT22;54551;51.068;5.826;2023-02-21T12:18:59;11.00;99.90
67752;DHT22;54551;51.068;5.826;2023-02-21T12:32:15;11.00;99.90
67752;DHT22;54551;51.068;5.826;2023-02-21T12:40:41;11.00;99.90
67752;DHT22;54551;51.068;5.826;2023-02-21T12:51:05;10.80;99.90
67752;DHT22;54551;51.068;5.826;2023-02-21T12:53:50;10.80;99.90
67752;DHT22;54551;51.068;5.826;2023-02-21T12:56:46;10.80;99.90
67752;DHT22;54551;51.068;5.826;2023-02-21T13:02:41;10.90;99.90
67752;DHT22;54551;51.068;5.826;2023-02-21T13:05:15;10.90;99.90
67752;DHT22;54551;51.068;5.826;2023-02-21T13:08:00;10.90;99.90
67752;DHT22;54551;51.068;5.826;2023-02-21T13:10:47;11.00;99.90
67752;DHT22;54551;51.068;5.826;2023-02-21T13:13:27;11.00;99.90
67752;DHT22;54551;51.068;5.826;2023-02-21T13:15:54;11.00;99.90
67752;DHT22;54551;51.068;5.826;2023-02-21T13:18:28;10.90;99.90
67752;DHT22;54551;51.068;5.826;2023-02-21T13:23:48;11.00;99.90
67752;DHT22;54551;51.068;5.826;2023-02-21T13:29:36;10.70;99.90
67752;DHT22;54551;51.068;5.826;2023-02-21T13:32:09;10.70;99.90
67752;DHT22;54551;51.068;5.826;2023-02-21T13:34:58;10.70;99.90
67752;DHT22;54551;51.068;5.826;2023-02-21T13:37:28;10.60;99.90
67752;DHT22;54551;51.068;5.826;2023-02-21T13:39:57;10.50;99.90
67752;DHT22;54551;51.068;5.826;2023-02-21T13:42:28;10.50;99.90
67752;DHT22;54551;51.068;5.826;2023-02-21T13:45:17;10.40;99.90
67752;DHT22;54551;51.068;5.826;2023-02-21T13:53:26;10.50;99.90
67752;DHT22;54551;51.068;5.826;2023-02-21T14:07:06;10.60;99.90
67752;DHT22;54551;51.068;5.826;2023-02-21T14:09:34;10.60;99.90
67752;DHT22;54551;51.068;5.826;2023-02-21T14:12:03;10.60;99.90
67752;DHT22;54551;51.068;5.826;2023-02-21T14:14:33;10.50;99.90
67752;DHT22;54551;51.068;5.826;2023-02-21T14:17:01;10.40;99.90
67752;DHT22;54551;51.068;5.826;2023-02-21T14:19:54;10.40;99.90
67752;DHT22;54551;51.068;5.826;2023-02-21T14:22:27;10.50;99.90
67752;DHT22;54551;51.068;5.826;2023-02-21T14:27:39;10.50;99.90
67752;DHT22;54551;51.068;5.826;2023-02-21T14:32:49;10.50;99.90
67752;DHT22;54551;51.068;5.826;2023-02-21T14:40:21;10.50;99.90
67752;DHT22;54551;51.068;5.826;2023-02-21T15:02:49;10.40;99.90
67752;DHT22;54551;51.068;5.826;2023-02-21T15:08:17;10.40;99.90
67752;DHT22;54551;51.068;5.826;2023-02-21T15:10:46;10.30;99.90
67752;DHT22;54551;51.068;5.826;2023-02-21T15:13:39;10.30;99.90
67752;DHT22;54551;51.068;5.826;2023-02-21T15:16:07;10.20;99.90
67752;DHT22;54551;51.068;5.826;2023-02-21T15:18:38;10.20;99.90
67752;DHT22;54551;51.068;5.826;2023-02-21T15:21:17;10.20;99.90
67752;DHT22;54551;51.068;5.826;2023-02-21T15:23:48;10.20;99.90
67752;DHT22;54551;51.068;5.826;2023-02-21T15:26:31;10.20;99.90
67752;DHT22;54551;51.068;5.826;2023-02-21T15:29:14;10.20;99.90
67752;DHT22;54551;51.068;5.826;2023-02-21T15:31:43;10.10;99.90
67752;DHT22;54551;51.068;5.826;2023-02-21T15:34:32;10.10;99.90
67752;DHT22;54551;51.068;5.826;2023-02-21T15:37:28;10.10;99.90
67752;DHT22;54551;51.068;5.826;2023-02-21T15:39:57;10.10;99.90
67752;DHT22;54551;51.068;5.826;2023-02-21T15:42:25;10.00;99.90
67752;DHT22;54551;51.068;5.826;2023-02-21T15:45:02;10.00;99.90
67752;DHT22;54551;51.068;5.826;2023-02-21T15:47:30;10.00;99.90
67752;DHT22;54551;51.068;5.826;2023-02-21T15:53:23;9.90;99.90
67752;DHT22;54551;51.068;5.826;2023-02-21T15:55:50;9.90;99.90
67752;DHT22;54551;51.068;5.826;2023-02-21T15:58:25;9.80;99.90
67752;DHT22;54551;51.068;5.826;2023-02-21T16:01:09;9.80;99.90
67752;DHT22;54551;51.068;5.826;2023-02-21T16:03:42;9.80;99.90
67752;DHT22;54551;51.068;5.826;2023-02-21T16:08:39;9.90;99.90
67752;DHT22;54551;51.068;5.826;2023-02-21T16:11:05;9.90;99.90
67752;DHT22;54551;51.068;5.826;2023-02-21T16:13:36;9.80;99.90
67752;DHT22;54551;51.068;5.826;2023-02-21T16:16:04;9.80;99.90
67752;DHT22;54551;51.068;5.826;2023-02-21T16:18:30;9.70;99.90
67752;DHT22;54551;51.068;5.826;2023-02-21T16:21:02;9.60;99.90
67752;DHT22;54551;51.068;5.826;2023-02-21T16:25:58;9.50;99.90
67752;DHT22;54551;51.068;5.826;2023-02-21T16:28:25;9.50;99.90
67752;DHT22;54551;51.068;5.826;2023-02-21T16:30:52;9.40;99.90
67752;DHT22;54551;51.068;5.826;2023-02-21T16:33:20;9.50;99.90
67752;DHT22;54551;51.068;5.826;2023-02-21T16:35:46;9.40;99.90
67752;DHT22;54551;51.068;5.826;2023-02-21T16:38:19;9.40;99.90
67752;DHT22;54551;51.068;5.826;2023-02-21T16:40:46;9.40;99.90
67752;DHT22;54551;51.068;5.826;2023-02-21T16:43:24;9.40;99.90
67752;DHT22;54551;51.068;5.826;2023-02-21T16:45:52;9.40;99.90
67752;DHT22;54551;51.068;5.826;2023-02-21T16:48:21;9.40;99.90
67752;DHT22;54551;51.068;5.826;2023-02-21T16:50:50;9.40;99.90
67752;DHT22;54551;51.068;5.826;2023-02-21T16:53:17;9.40;99.90
67752;DHT22;54551;51.068;5.826;2023-02-21T16:55:44;9.40;99.90
67752;DHT22;54551;51.068;5.826;2023-02-21T16:58:31;9.30;99.90
67752;DHT22;54551;51.068;5.826;2023-02-21T17:01:01;9.40;99.90
67752;DHT22;54551;51.068;5.826;2023-02-21T17:03:28;9.30;99.90
67752;DHT22;54551;51.068;5.826;2023-02-21T17:05:56;9.30;99.90
67752;DHT22;54551;51.068;5.826;2023-02-21T17:08:22;9.30;99.90
67752;DHT22;54551;51.068;5.826;2023-02-21T17:10:50;9.30;99.90
67752;DHT22;54551;51.068;5.826;2023-02-21T17:13:16;9.30;99.90
67752;DHT22;54551;51.068;5.826;2023-02-21T17:15:42;9.30;99.90
67752;DHT22;54551;51.068;5.826;2023-02-21T17:18:08;9.30;99.90
67752;DHT22;54551;51.068;5.826;2023-02-21T17:20:34;9.30;99.90
67752;DHT22;54551;51.068;5.826;2023-02-21T17:23:00;9.20;99.90
67752;DHT22;54551;51.068;5.826;2023-02-21T17:25:27;9.20;99.90
67752;DHT22;54551;51.068;5.826;2023-02-21T17:27:53;9.20;99.90
67752;DHT22;54551;51.068;5.826;2023-02-21T17:30:22;9.10;99.90
67752;DHT22;54551;51.068;5.826;2023-02-21T17:32:50;9.10;99.90
67752;DHT22;54551;51.068;5.826;2023-02-21T17:35:18;9.00;99.90
67752;DHT22;54551;51.068;5.826;2023-02-21T17:37:45;9.00;99.90
67752;DHT22;54551;51.068;5.826;2023-02-21T17:40:19;8.90;99.90
67752;DHT22;54551;51.068;5.826;2023-02-21T17:42:45;8.90;99.90
67752;DHT22;54551;51.068;5.826;2023-02-21T17:45:12;8.90;99.90
67752;DHT22;54551;51.068;5.826;2023-02-21T17:47:40;8.90;99.90
67752;DHT22;54551;51.068;5.826;2023-02-21T17:50:07;8.90;99.90
67752;DHT22;54551;51.068;5.826;2023-02-21T17:52:33;8.90;99.90
67752;DHT22;54551;51.068;5.826;2023-02-21T17:54:59;8.80;99.90
67752;DHT22;54551;51.068;5.826;2023-02-21T17:57:27;8.70;99.90
67752;DHT22;54551;51.068;5.826;2023-02-21T17:59:54;8.80;99.90
67752;DHT22;54551;51.068;5.826;2023-02-21T18:02:20;8.80;99.90
67752;DHT22;54551;51.068;5.826;2023-02-21T18:04:46;8.80;99.90
67752;DHT22;54551;51.068;5.826;2023-02-21T18:07:14;8.80;99.90
67752;DHT22;54551;51.068;5.826;2023-02-21T18:09:40;8.80;99.90
67752;DHT22;54551;51.068;5.826;2023-02-21T18:12:06;8.80;99.90
67752;DHT22;54551;51.068;5.826;2023-02-21T18:14:32;8.80;99.90
67752;DHT22;54551;51.068;5.826;2023-02-21T18:16:58;8.80;99.90
67752;DHT22;54551;51.068;5.826;2023-02-21T18:19:24;8.70;99.90
67752;DHT22;54551;51.068;5.826;2023-02-21T18:21:50;8.80;99.90
67752;DHT22;54551;51.068;5.826;2023-02-21T18:24:16;8.70;99.90
67752;DHT22;54551;51.068;5.826;2023-02-21T18:26:44;8.70;99.90
67752;DHT22;54551;51.068;5.826;2023-02-21T18:29:10;8.70;99.90
67752;DHT22;54551;51.068;5.826;2023-02-21T18:31:36;8.70;99.90
67752;DHT22;54551;51.068;5.826;2023-02-21T18:34:03;8.70;99.90
67752;DHT22;54551;51.068;5.826;2023-02-21T18:36:29;8.70;99.90
67752;DHT22;54551;51.068;5.826;2023-02-21T18:38:55;8.70;99.90
67752;DHT22;54551;51.068;5.826;2023-02-21T18:41:21;8.70;99.90
67752;DHT22;54551;51.068;5.826;2023-02-21T18:43:49;8.80;99.90
67752;DHT22;54551;51.068;5.826;2023-02-21T18:46:18;8.80;99.90
67752;DHT22;54551;51.068;5.826;2023-02-21T18:48:46;8.80;99.90